Wednesday, June 20, 2018, 2:53 PM GMT
Back to Local

CWQV, Puinte Claveau

Location: , , Canada Lat: 48.267
Local Time: 2:53 PM GMT (14:53 GMT) Lon: -70.117
Time Zone: GMT Elev: 0 ft

Show me the last for .
Show Coded

Time T Td Feel RH Dir Speed Gust Alt SLP Vis Weather Sky Remarks
2018-06-20 14:00 56 - - 0 90° 2 - - - 0 None
2018-06-20 13:00 55 - - 0 290° 2 - - - 0 None
2018-06-20 12:00 54 - - 0 70° 1 - - - 0 None
2018-06-20 11:00 52 - - 0 100° 2 - - - 0 None
2018-06-20 10:00 52 - - 0 140° 1 - - - 0 None
2018-06-20 09:00 52 - - 0 310° 2 - - - 0 None
2018-06-20 08:00 53 - - 0 - Calm - - - 0 None
2018-06-20 07:00 55 - - 0 290° 6 - - - 0 None
2018-06-20 06:00 54 - - 0 250° 1 - - - 0 None
2018-06-20 05:00 56 - - 0 330° 1 - - - 0 None
2018-06-20 04:00 60 - - 0 300° 3 - - - 0 None
2018-06-20 03:00 63 - - 0 300° 5 - - - 0 None
2018-06-20 02:00 62 - - 0 290° 5 - - - 0 None
2018-06-20 01:00 66 - - 0 310° 5 - - - 0 None
2018-06-20 00:00 66 - - 0 290° 8 - - - 0 None
2018-06-19 23:00 67 - - 0 290° 9 - - - 0 Peak wind: 26 mph (23 kts) from 280° at 29 min
2018-06-19 22:00 71 - - 0 280° 20 25 - - 0 Peak wind: 26 mph (23 kts) from 280° at 05 min
2018-06-19 21:00 71 - - 0 280° 21 26 - - 0 Peak wind: 29 mph (26 kts) from 280° at 42 min
2018-06-19 20:00 70 - - 0 280° 23 29 - - 0 Peak wind: 28 mph (25 kts) from 290° at 58 min
2018-06-19 19:00 67 - - 0 280° 23 29 - - 0 Peak wind: 32 mph (28 kts) from 290° at 03 min
2018-06-19 18:00 64 - - 0 280° 25 32 - - 0 Peak wind: 35 mph (31 kts) from 280° at 01 min
2018-06-19 17:00 62 - - 0 280° 28 33 - - 0 Peak wind: 34 mph (30 kts) from 280° at 25 min
2018-06-19 16:00 61 - - 0 280° 28 - - - 0 Peak wind: 36 mph (32 kts) from 290° at 01 min
2018-06-19 15:00 58 - - 0 280° 29 35 - - 0 Peak wind: 36 mph (32 kts) from 280° at 24 min

Support USWX by starting your Amazon purchase here.